sensor_id;sensor_type;location;lat;lon;timestamp;temperature;humidity
22795;DHT22;11564;50.920;11.612;2022-12-24T00:01:55;10.70;99.90
22795;DHT22;11564;50.920;11.612;2022-12-24T00:04:21;10.70;99.90
22795;DHT22;11564;50.920;11.612;2022-12-24T00:06:46;10.80;99.90
22795;DHT22;11564;50.920;11.612;2022-12-24T00:09:12;10.80;99.90
22795;DHT22;11564;50.920;11.612;2022-12-24T00:11:38;10.80;99.90
22795;DHT22;11564;50.920;11.612;2022-12-24T00:14:03;10.90;99.90
22795;DHT22;11564;50.920;11.612;2022-12-24T00:16:29;10.90;99.90
22795;DHT22;11564;50.920;11.612;2022-12-24T00:18:55;10.90;99.90
22795;DHT22;11564;50.920;11.612;2022-12-24T00:21:20;10.90;99.90
22795;DHT22;11564;50.920;11.612;2022-12-24T00:23:46;10.90;99.90
22795;DHT22;11564;50.920;11.612;2022-12-24T00:26:12;10.90;99.90
22795;DHT22;11564;50.920;11.612;2022-12-24T00:28:38;10.90;99.90
22795;DHT22;11564;50.920;11.612;2022-12-24T00:31:09;10.80;99.90
22795;DHT22;11564;50.920;11.612;2022-12-24T00:33:35;10.80;99.90
22795;DHT22;11564;50.920;11.612;2022-12-24T00:36:00;10.80;99.90
22795;DHT22;11564;50.920;11.612;2022-12-24T00:38:26;10.80;99.90
22795;DHT22;11564;50.920;11.612;2022-12-24T00:41:00;10.70;99.90
22795;DHT22;11564;50.920;11.612;2022-12-24T00:43:27;10.70;99.90
22795;DHT22;11564;50.920;11.612;2022-12-24T00:45:53;10.60;99.90
22795;DHT22;11564;50.920;11.612;2022-12-24T00:48:19;10.50;99.90
22795;DHT22;11564;50.920;11.612;2022-12-24T00:50:44;10.40;99.90
22795;DHT22;11564;50.920;11.612;2022-12-24T00:53:10;10.40;99.90
22795;DHT22;11564;50.920;11.612;2022-12-24T00:55:36;10.40;99.90
22795;DHT22;11564;50.920;11.612;2022-12-24T00:58:01;10.40;99.90
22795;DHT22;11564;50.920;11.612;2022-12-24T01:00:27;10.30;99.90
22795;DHT22;11564;50.920;11.612;2022-12-24T01:02:52;10.30;99.90
22795;DHT22;11564;50.920;11.612;2022-12-24T01:05:18;10.40;99.90
22795;DHT22;11564;50.920;11.612;2022-12-24T01:07:45;10.30;99.90
22795;DHT22;11564;50.920;11.612;2022-12-24T01:10:13;10.30;99.90
22795;DHT22;11564;50.920;11.612;2022-12-24T01:12:39;10.40;99.90
22795;DHT22;11564;50.920;11.612;2022-12-24T01:15:05;10.70;99.90
22795;DHT22;11564;50.920;11.612;2022-12-24T01:17:33;10.70;99.90
22795;DHT22;11564;50.920;11.612;2022-12-24T01:19:59;10.80;99.90
22795;DHT22;11564;50.920;11.612;2022-12-24T01:22:25;10.80;99.90
22795;DHT22;11564;50.920;11.612;2022-12-24T01:24:51;10.80;99.90
22795;DHT22;11564;50.920;11.612;2022-12-24T01:27:16;10.80;99.90
22795;DHT22;11564;50.920;11.612;2022-12-24T01:29:42;10.80;99.90
22795;DHT22;11564;50.920;11.612;2022-12-24T01:32:08;10.80;99.90
22795;DHT22;11564;50.920;11.612;2022-12-24T01:34:33;10.80;99.90
22795;DHT22;11564;50.920;11.612;2022-12-24T01:36:59;10.80;99.90
22795;DHT22;11564;50.920;11.612;2022-12-24T01:39:24;10.90;99.90
22795;DHT22;11564;50.920;11.612;2022-12-24T01:41:50;10.90;99.90
22795;DHT22;11564;50.920;11.612;2022-12-24T01:44:39;10.90;99.90
22795;DHT22;11564;50.920;11.612;2022-12-24T01:47:14;10.90;99.90
22795;DHT22;11564;50.920;11.612;2022-12-24T01:49:52;10.80;99.90
22795;DHT22;11564;50.920;11.612;2022-12-24T01:52:24;10.70;99.90
22795;DHT22;11564;50.920;11.612;2022-12-24T01:54:56;10.70;99.90
22795;DHT22;11564;50.920;11.612;2022-12-24T01:57:29;10.70;99.90
22795;DHT22;11564;50.920;11.612;2022-12-24T01:59:59;10.60;99.90
22795;DHT22;11564;50.920;11.612;2022-12-24T02:02:26;10.50;99.90
22795;DHT22;11564;50.920;11.612;2022-12-24T02:05:45;10.40;99.90
22795;DHT22;11564;50.920;11.612;2022-12-24T02:08:02;10.30;99.90
22795;DHT22;11564;50.920;11.612;2022-12-24T02:10:28;10.30;99.90
22795;DHT22;11564;50.920;11.612;2022-12-24T02:12:55;10.30;99.90
22795;DHT22;11564;50.920;11.612;2022-12-24T02:15:21;10.30;99.90
22795;DHT22;11564;50.920;11.612;2022-12-24T02:17:57;10.40;99.90
22795;DHT22;11564;50.920;11.612;2022-12-24T02:34:01;10.20;99.90
22795;DHT22;11564;50.920;11.612;2022-12-24T02:36:36;10.10;99.90
22795;DHT22;11564;50.920;11.612;2022-12-24T02:39:08;10.10;99.90
22795;DHT22;11564;50.920;11.612;2022-12-24T02:41:39;10.20;99.90
22795;DHT22;11564;50.920;11.612;2022-12-24T02:44:26;10.20;99.90
22795;DHT22;11564;50.920;11.612;2022-12-24T02:46:55;10.20;99.90
22795;DHT22;11564;50.920;11.612;2022-12-24T02:49:21;10.30;99.90
22795;DHT22;11564;50.920;11.612;2022-12-24T02:51:46;10.30;99.90
22795;DHT22;11564;50.920;11.612;2022-12-24T02:54:13;10.30;99.90
22795;DHT22;11564;50.920;11.612;2022-12-24T02:57:11;10.20;99.90
22795;DHT22;11564;50.920;11.612;2022-12-24T03:10:22;10.30;99.90
22795;DHT22;11564;50.920;11.612;2022-12-24T03:12:53;10.30;99.90
22795;DHT22;11564;50.920;11.612;2022-12-24T03:15:23;10.10;99.90
22795;DHT22;11564;50.920;11.612;2022-12-24T03:17:51;10.10;99.90
22795;DHT22;11564;50.920;11.612;2022-12-24T03:20:21;10.20;99.90
22795;DHT22;11564;50.920;11.612;2022-12-24T03:22:48;10.20;99.90
22795;DHT22;11564;50.920;11.612;2022-12-24T03:25:13;10.20;99.90
22795;DHT22;11564;50.920;11.612;2022-12-24T03:27:39;10.20;99.90
22795;DHT22;11564;50.920;11.612;2022-12-24T03:30:11;10.10;99.90
22795;DHT22;11564;50.920;11.612;2022-12-24T03:32:37;10.00;99.90
22795;DHT22;11564;50.920;11.612;2022-12-24T03:35:04;10.10;99.90
22795;DHT22;11564;50.920;11.612;2022-12-24T03:37:29;10.10;99.90
22795;DHT22;11564;50.920;11.612;2022-12-24T03:39:55;10.00;99.90
22795;DHT22;11564;50.920;11.612;2022-12-24T03:42:21;10.00;99.90
22795;DHT22;11564;50.920;11.612;2022-12-24T03:44:46;10.00;99.90
22795;DHT22;11564;50.920;11.612;2022-12-24T03:47:12;9.90;99.90
22795;DHT22;11564;50.920;11.612;2022-12-24T03:49:37;9.90;99.90
22795;DHT22;11564;50.920;11.612;2022-12-24T03:52:03;10.00;99.90
22795;DHT22;11564;50.920;11.612;2022-12-24T03:54:29;10.00;99.90
22795;DHT22;11564;50.920;11.612;2022-12-24T03:56:55;9.90;99.90
22795;DHT22;11564;50.920;11.612;2022-12-24T03:59:20;9.90;99.90
22795;DHT22;11564;50.920;11.612;2022-12-24T04:01:46;9.80;99.90
22795;DHT22;11564;50.920;11.612;2022-12-24T04:04:11;9.80;99.90
22795;DHT22;11564;50.920;11.612;2022-12-24T04:06:37;9.90;99.90
22795;DHT22;11564;50.920;11.612;2022-12-24T04:09:03;9.80;99.90
22795;DHT22;11564;50.920;11.612;2022-12-24T04:11:30;9.80;99.90
22795;DHT22;11564;50.920;11.612;2022-12-24T04:13:56;9.90;99.90
22795;DHT22;11564;50.920;11.612;2022-12-24T04:16:22;9.80;99.90
22795;DHT22;11564;50.920;11.612;2022-12-24T04:18:48;9.80;99.90
22795;DHT22;11564;50.920;11.612;2022-12-24T04:21:15;9.80;99.90
22795;DHT22;11564;50.920;11.612;2022-12-24T04:23:41;9.80;99.90
22795;DHT22;11564;50.920;11.612;2022-12-24T04:26:09;9.70;99.90
22795;DHT22;11564;50.920;11.612;2022-12-24T04:28:35;9.70;99.90
22795;DHT22;11564;50.920;11.612;2022-12-24T04:31:06;9.70;99.90
22795;DHT22;11564;50.920;11.612;2022-12-24T04:33:33;9.80;99.90
22795;DHT22;11564;50.920;11.612;2022-12-24T04:36:00;9.60;99.90
22795;DHT22;11564;50.920;11.612;2022-12-24T04:38:26;9.50;99.90
22795;DHT22;11564;50.920;11.612;2022-12-24T04:41:03;9.50;99.90
22795;DHT22;11564;50.920;11.612;2022-12-24T04:43:29;9.40;99.90
22795;DHT22;11564;50.920;11.612;2022-12-24T04:45:56;9.60;99.90
22795;DHT22;11564;50.920;11.612;2022-12-24T04:48:22;9.60;99.90
22795;DHT22;11564;50.920;11.612;2022-12-24T04:50:47;9.50;99.90
22795;DHT22;11564;50.920;11.612;2022-12-24T04:53:13;9.50;99.90
22795;DHT22;11564;50.920;11.612;2022-12-24T04:55:44;9.40;99.90
22795;DHT22;11564;50.920;11.612;2022-12-24T04:58:09;9.40;99.90
22795;DHT22;11564;50.920;11.612;2022-12-24T05:00:35;9.40;99.90
22795;DHT22;11564;50.920;11.612;2022-12-24T05:03:01;9.50;99.90
22795;DHT22;11564;50.920;11.612;2022-12-24T05:05:26;9.50;99.90
22795;DHT22;11564;50.920;11.612;2022-12-24T05:07:52;9.50;99.90
22795;DHT22;11564;50.920;11.612;2022-12-24T05:10:18;9.50;99.90
22795;DHT22;11564;50.920;11.612;2022-12-24T05:12:43;9.70;99.90
22795;DHT22;11564;50.920;11.612;2022-12-24T05:15:09;9.80;99.90
22795;DHT22;11564;50.920;11.612;2022-12-24T05:17:35;9.80;99.90
22795;DHT22;11564;50.920;11.612;2022-12-24T05:20:01;9.80;99.90
22795;DHT22;11564;50.920;11.612;2022-12-24T05:22:26;9.80;99.90
22795;DHT22;11564;50.920;11.612;2022-12-24T05:25:10;9.80;99.90
22795;DHT22;11564;50.920;11.612;2022-12-24T05:27:54;9.90;99.90
22795;DHT22;11564;50.920;11.612;2022-12-24T05:30:20;9.90;99.90
22795;DHT22;11564;50.920;11.612;2022-12-24T05:32:46;10.00;99.90
22795;DHT22;11564;50.920;11.612;2022-12-24T05:35:11;10.00;99.90
22795;DHT22;11564;50.920;11.612;2022-12-24T05:37:38;10.00;99.90
22795;DHT22;11564;50.920;11.612;2022-12-24T05:40:04;9.90;99.90
22795;DHT22;11564;50.920;11.612;2022-12-24T05:42:29;9.90;99.90
22795;DHT22;11564;50.920;11.612;2022-12-24T05:44:55;9.80;99.90
22795;DHT22;11564;50.920;11.612;2022-12-24T05:47:21;9.60;99.90
22795;DHT22;11564;50.920;11.612;2022-12-24T05:49:46;9.40;99.90
22795;DHT22;11564;50.920;11.612;2022-12-24T05:52:12;9.30;99.90
22795;DHT22;11564;50.920;11.612;2022-12-24T05:54:37;9.00;99.90
22795;DHT22;11564;50.920;11.612;2022-12-24T05:57:03;8.80;99.90
22795;DHT22;11564;50.920;11.612;2022-12-24T05:59:28;8.60;99.90
22795;DHT22;11564;50.920;11.612;2022-12-24T06:01:54;8.50;99.90
22795;DHT22;11564;50.920;11.612;2022-12-24T06:04:20;8.40;99.90
22795;DHT22;11564;50.920;11.612;2022-12-24T06:06:45;8.30;99.90
22795;DHT22;11564;50.920;11.612;2022-12-24T06:09:11;8.20;99.90
22795;DHT22;11564;50.920;11.612;2022-12-24T06:11:36;8.30;99.90
22795;DHT22;11564;50.920;11.612;2022-12-24T06:14:02;8.30;99.90
22795;DHT22;11564;50.920;11.612;2022-12-24T06:16:28;8.30;99.90
22795;DHT22;11564;50.920;11.612;2022-12-24T06:18:54;8.20;99.90
22795;DHT22;11564;50.920;11.612;2022-12-24T06:21:20;8.20;99.90
22795;DHT22;11564;50.920;11.612;2022-12-24T06:23:46;8.20;99.90
22795;DHT22;11564;50.920;11.612;2022-12-24T06:26:14;8.10;99.90
22795;DHT22;11564;50.920;11.612;2022-12-24T06:28:40;8.20;99.90
22795;DHT22;11564;50.920;11.612;2022-12-24T06:31:10;8.30;99.90
22795;DHT22;11564;50.920;11.612;2022-12-24T06:33:36;8.30;99.90
22795;DHT22;11564;50.920;11.612;2022-12-24T06:36:05;8.30;99.90
22795;DHT22;11564;50.920;11.612;2022-12-24T06:38:32;8.40;99.90
22795;DHT22;11564;50.920;11.612;2022-12-24T06:40:58;8.30;99.90
22795;DHT22;11564;50.920;11.612;2022-12-24T06:43:24;8.40;99.90
22795;DHT22;11564;50.920;11.612;2022-12-24T06:45:50;8.40;99.90
22795;DHT22;11564;50.920;11.612;2022-12-24T06:48:15;8.50;99.90
22795;DHT22;11564;50.920;11.612;2022-12-24T06:50:41;8.50;99.90
22795;DHT22;11564;50.920;11.612;2022-12-24T06:53:08;8.70;99.90
22795;DHT22;11564;50.920;11.612;2022-12-24T06:55:33;8.60;99.90
22795;DHT22;11564;50.920;11.612;2022-12-24T06:57:59;8.50;99.90
22795;DHT22;11564;50.920;11.612;2022-12-24T07:00:25;8.60;99.90
22795;DHT22;11564;50.920;11.612;2022-12-24T07:02:50;8.50;99.90
22795;DHT22;11564;50.920;11.612;2022-12-24T07:05:16;8.50;99.90
22795;DHT22;11564;50.920;11.612;2022-12-24T07:07:43;8.60;99.90
22795;DHT22;11564;50.920;11.612;2022-12-24T07:10:12;8.50;99.90
22795;DHT22;11564;50.920;11.612;2022-12-24T07:12:37;8.50;99.90
22795;DHT22;11564;50.920;11.612;2022-12-24T07:15:03;8.50;99.90
22795;DHT22;11564;50.920;11.612;2022-12-24T07:17:29;8.40;99.90
22795;DHT22;11564;50.920;11.612;2022-12-24T07:19:55;8.50;99.90
22795;DHT22;11564;50.920;11.612;2022-12-24T07:22:20;8.40;99.90
22795;DHT22;11564;50.920;11.612;2022-12-24T07:24:46;8.50;99.90
22795;DHT22;11564;50.920;11.612;2022-12-24T07:27:12;8.50;99.90
22795;DHT22;11564;50.920;11.612;2022-12-24T07:29:37;8.50;99.90
22795;DHT22;11564;50.920;11.612;2022-12-24T07:32:03;8.60;99.90
22795;DHT22;11564;50.920;11.612;2022-12-24T07:34:29;8.50;99.90
22795;DHT22;11564;50.920;11.612;2022-12-24T07:36:54;8.50;99.90
22795;DHT22;11564;50.920;11.612;2022-12-24T07:39:20;8.60;99.90
22795;DHT22;11564;50.920;11.612;2022-12-24T07:41:45;8.60;99.90
22795;DHT22;11564;50.920;11.612;2022-12-24T07:44:14;8.80;99.90
22795;DHT22;11564;50.920;11.612;2022-12-24T07:46:40;8.90;99.90
22795;DHT22;11564;50.920;11.612;2022-12-24T07:49:06;9.00;99.90
22795;DHT22;11564;50.920;11.612;2022-12-24T07:51:31;8.90;99.90
22795;DHT22;11564;50.920;11.612;2022-12-24T07:53:57;9.00;99.90
22795;DHT22;11564;50.920;11.612;2022-12-24T07:56:23;9.00;99.90
22795;DHT22;11564;50.920;11.612;2022-12-24T07:58:49;9.10;99.90
22795;DHT22;11564;50.920;11.612;2022-12-24T08:01:15;9.00;99.90
22795;DHT22;11564;50.920;11.612;2022-12-24T08:03:41;9.00;99.90
22795;DHT22;11564;50.920;11.612;2022-12-24T08:06:07;9.10;99.90
22795;DHT22;11564;50.920;11.612;2022-12-24T08:08:33;9.10;99.90
22795;DHT22;11564;50.920;11.612;2022-12-24T08:11:04;9.10;99.90
22795;DHT22;11564;50.920;11.612;2022-12-24T08:13:31;9.20;99.90
22795;DHT22;11564;50.920;11.612;2022-12-24T08:15:56;9.20;99.90
22795;DHT22;11564;50.920;11.612;2022-12-24T08:18:22;9.30;99.90
22795;DHT22;11564;50.920;11.612;2022-12-24T08:20:48;9.30;99.90
22795;DHT22;11564;50.920;11.612;2022-12-24T08:23:14;9.30;99.90
22795;DHT22;11564;50.920;11.612;2022-12-24T08:25:44;9.40;99.90
22795;DHT22;11564;50.920;11.612;2022-12-24T08:28:11;9.40;99.90
22795;DHT22;11564;50.920;11.612;2022-12-24T08:30:36;9.50;99.90
22795;DHT22;11564;50.920;11.612;2022-12-24T08:33:02;9.50;99.90
22795;DHT22;11564;50.920;11.612;2022-12-24T08:35:28;9.50;99.90
22795;DHT22;11564;50.920;11.612;2022-12-24T08:37:53;9.50;99.90
22795;DHT22;11564;50.920;11.612;2022-12-24T08:40:19;9.50;99.90
22795;DHT22;11564;50.920;11.612;2022-12-24T08:42:45;9.40;99.90
22795;DHT22;11564;50.920;11.612;2022-12-24T08:45:11;9.30;99.90
22795;DHT22;11564;50.920;11.612;2022-12-24T08:47:37;9.20;99.90
22795;DHT22;11564;50.920;11.612;2022-12-24T08:50:04;9.20;99.90
22795;DHT22;11564;50.920;11.612;2022-12-24T08:52:30;9.10;99.90
22795;DHT22;11564;50.920;11.612;2022-12-24T08:54:56;9.10;99.90
22795;DHT22;11564;50.920;11.612;2022-12-24T08:57:21;9.10;99.90
22795;DHT22;11564;50.920;11.612;2022-12-24T08:59:47;9.10;99.90
22795;DHT22;11564;50.920;11.612;2022-12-24T09:02:12;9.20;99.90
22795;DHT22;11564;50.920;11.612;2022-12-24T09:04:38;9.20;99.90
22795;DHT22;11564;50.920;11.612;2022-12-24T09:07:05;9.20;99.90
22795;DHT22;11564;50.920;11.612;2022-12-24T09:09:31;9.20;99.90
22795;DHT22;11564;50.920;11.612;2022-12-24T09:11:56;9.30;99.90
22795;DHT22;11564;50.920;11.612;2022-12-24T09:14:22;9.30;99.90
22795;DHT22;11564;50.920;11.612;2022-12-24T09:16:48;9.30;99.90
22795;DHT22;11564;50.920;11.612;2022-12-24T09:19:13;9.40;99.90
22795;DHT22;11564;50.920;11.612;2022-12-24T09:21:39;9.50;99.90
22795;DHT22;11564;50.920;11.612;2022-12-24T09:24:05;9.60;99.90
22795;DHT22;11564;50.920;11.612;2022-12-24T09:26:30;9.70;99.90
22795;DHT22;11564;50.920;11.612;2022-12-24T09:28:57;9.80;99.90
22795;DHT22;11564;50.920;11.612;2022-12-24T09:31:25;9.80;99.90
22795;DHT22;11564;50.920;11.612;2022-12-24T09:33:51;9.80;99.90
22795;DHT22;11564;50.920;11.612;2022-12-24T09:36:17;9.80;99.90
22795;DHT22;11564;50.920;11.612;2022-12-24T09:38:43;9.80;99.90
22795;DHT22;11564;50.920;11.612;2022-12-24T09:46:52;9.60;99.90
22795;DHT22;11564;50.920;11.612;2022-12-24T09:49:26;9.50;99.90
22795;DHT22;11564;50.920;11.612;2022-12-24T09:52:00;9.60;99.90
22795;DHT22;11564;50.920;11.612;2022-12-24T09:54:32;9.70;99.90
22795;DHT22;11564;50.920;11.612;2022-12-24T09:57:24;9.70;99.90
22795;DHT22;11564;50.920;11.612;2022-12-24T09:59:48;9.70;99.90
22795;DHT22;11564;50.920;11.612;2022-12-24T10:02:16;9.90;99.90
22795;DHT22;11564;50.920;11.612;2022-12-24T10:04:43;10.00;99.90
22795;DHT22;11564;50.920;11.612;2022-12-24T10:09:49;10.10;99.90
22795;DHT22;11564;50.920;11.612;2022-12-24T10:12:32;10.00;99.90
22795;DHT22;11564;50.920;11.612;2022-12-24T10:17:40;10.10;99.90
22795;DHT22;11564;50.920;11.612;2022-12-24T10:26:17;10.10;99.90
22795;DHT22;11564;50.920;11.612;2022-12-24T10:31:35;10.10;99.90
22795;DHT22;11564;50.920;11.612;2022-12-24T10:34:11;10.10;99.90
22795;DHT22;11564;50.920;11.612;2022-12-24T10:36:37;10.20;99.90
22795;DHT22;11564;50.920;11.612;2022-12-24T10:39:02;10.20;99.90
22795;DHT22;11564;50.920;11.612;2022-12-24T10:41:29;10.30;99.90
22795;DHT22;11564;50.920;11.612;2022-12-24T10:43:56;10.30;99.90
22795;DHT22;11564;50.920;11.612;2022-12-24T10:46:30;10.30;99.90
22795;DHT22;11564;50.920;11.612;2022-12-24T10:49:00;10.30;99.90
22795;DHT22;11564;50.920;11.612;2022-12-24T10:51:53;10.30;99.90
22795;DHT22;11564;50.920;11.612;2022-12-24T10:54:22;10.30;99.90
22795;DHT22;11564;50.920;11.612;2022-12-24T10:56:51;10.20;99.90
22795;DHT22;11564;50.920;11.612;2022-12-24T10:59:28;10.20;99.90
22795;DHT22;11564;50.920;11.612;2022-12-24T11:01:56;10.30;99.90
22795;DHT22;11564;50.920;11.612;2022-12-24T11:04:25;10.30;99.90
22795;DHT22;11564;50.920;11.612;2022-12-24T11:07:02;10.30;99.90
22795;DHT22;11564;50.920;11.612;2022-12-24T11:09:30;10.40;99.90
22795;DHT22;11564;50.920;11.612;2022-12-24T11:11:57;10.60;99.90
22795;DHT22;11564;50.920;11.612;2022-12-24T11:14:32;10.80;99.90
22795;DHT22;11564;50.920;11.612;2022-12-24T11:16:58;11.10;99.90
22795;DHT22;11564;50.920;11.612;2022-12-24T11:22:01;11.50;99.90
22795;DHT22;11564;50.920;11.612;2022-12-24T11:24:31;11.60;99.90
22795;DHT22;11564;50.920;11.612;2022-12-24T11:27:26;11.70;99.90
22795;DHT22;11564;50.920;11.612;2022-12-24T11:32:36;11.70;99.90
22795;DHT22;11564;50.920;11.612;2022-12-24T11:35:05;11.70;99.90
22795;DHT22;11564;50.920;11.612;2022-12-24T11:37:31;11.70;99.90
22795;DHT22;11564;50.920;11.612;2022-12-24T11:39:59;11.50;99.90
22795;DHT22;11564;50.920;11.612;2022-12-24T11:42:37;11.50;99.90
22795;DHT22;11564;50.920;11.612;2022-12-24T11:45:13;11.30;99.90
22795;DHT22;11564;50.920;11.612;2022-12-24T11:47:41;11.20;99.90
22795;DHT22;11564;50.920;11.612;2022-12-24T12:06:44;11.10;99.90
22795;DHT22;11564;50.920;11.612;2022-12-24T12:09:23;11.20;99.90
22795;DHT22;11564;50.920;11.612;2022-12-24T12:12:01;11.10;99.90
22795;DHT22;11564;50.920;11.612;2022-12-24T12:20:28;11.10;99.90
22795;DHT22;11564;50.920;11.612;2022-12-24T12:28:19;11.50;99.40
22795;DHT22;11564;50.920;11.612;2022-12-24T12:30:58;11.60;98.80
22795;DHT22;11564;50.920;11.612;2022-12-24T12:33:38;11.60;98.50
22795;DHT22;11564;50.920;11.612;2022-12-24T12:36:06;11.60;98.70
22795;DHT22;11564;50.920;11.612;2022-12-24T12:38:33;11.80;98.70
22795;DHT22;11564;50.920;11.612;2022-12-24T12:46:42;10.90;99.90
22795;DHT22;11564;50.920;11.612;2022-12-24T12:57:44;10.80;99.90
22795;DHT22;11564;50.920;11.612;2022-12-24T13:00:14;10.90;99.90
22795;DHT22;11564;50.920;11.612;2022-12-24T13:03:20;11.00;99.40
22795;DHT22;11564;50.920;11.612;2022-12-24T13:06:04;11.00;99.90
22795;DHT22;11564;50.920;11.612;2022-12-24T13:17:45;11.10;99.00
22795;DHT22;11564;50.920;11.612;2022-12-24T13:20:22;11.20;98.90
22795;DHT22;11564;50.920;11.612;2022-12-24T13:25:25;11.00;98.70
22795;DHT22;11564;50.920;11.612;2022-12-24T13:27:51;11.00;98.70
22795;DHT22;11564;50.920;11.612;2022-12-24T13:30:38;11.20;98.90
22795;DHT22;11564;50.920;11.612;2022-12-24T13:33:06;11.40;98.60
22795;DHT22;11564;50.920;11.612;2022-12-24T13:35:34;11.30;98.50
22795;DHT22;11564;50.920;11.612;2022-12-24T13:38:43;11.30;98.40
22795;DHT22;11564;50.920;11.612;2022-12-24T13:54:44;11.20;98.50
22795;DHT22;11564;50.920;11.612;2022-12-24T13:57:43;11.30;98.40
22795;DHT22;11564;50.920;11.612;2022-12-24T14:00:26;11.30;98.30
22795;DHT22;11564;50.920;11.612;2022-12-24T14:08:10;11.10;98.80
22795;DHT22;11564;50.920;11.612;2022-12-24T14:10:44;10.90;99.10
22795;DHT22;11564;50.920;11.612;2022-12-24T14:16:18;10.80;99.30
22795;DHT22;11564;50.920;11.612;2022-12-24T14:18:49;10.80;99.50
22795;DHT22;11564;50.920;11.612;2022-12-24T14:21:17;10.80;99.70
22795;DHT22;11564;50.920;11.612;2022-12-24T14:23:59;10.70;99.80
22795;DHT22;11564;50.920;11.612;2022-12-24T14:26:29;10.60;99.90
22795;DHT22;11564;50.920;11.612;2022-12-24T14:29:06;10.60;99.90
22795;DHT22;11564;50.920;11.612;2022-12-24T14:31:50;10.60;99.50
22795;DHT22;11564;50.920;11.612;2022-12-24T14:34:16;10.60;99.50
22795;DHT22;11564;50.920;11.612;2022-12-24T14:36:42;10.50;99.70
22795;DHT22;11564;50.920;11.612;2022-12-24T14:39:23;10.50;99.80
22795;DHT22;11564;50.920;11.612;2022-12-24T14:42:15;10.50;99.90
22795;DHT22;11564;50.920;11.612;2022-12-24T14:44:58;10.40;99.90
22795;DHT22;11564;50.920;11.612;2022-12-24T14:50:43;10.00;99.90
22795;DHT22;11564;50.920;11.612;2022-12-24T14:55:45;9.40;99.90
22795;DHT22;11564;50.920;11.612;2022-12-24T15:00:51;9.10;99.90
22795;DHT22;11564;50.920;11.612;2022-12-24T15:03:19;9.00;99.90
22795;DHT22;11564;50.920;11.612;2022-12-24T15:05:50;8.90;99.90
22795;DHT22;11564;50.920;11.612;2022-12-24T15:08:21;8.90;99.90
22795;DHT22;11564;50.920;11.612;2022-12-24T15:10:52;8.80;99.90
22795;DHT22;11564;50.920;11.612;2022-12-24T15:13:38;8.80;99.90
22795;DHT22;11564;50.920;11.612;2022-12-24T15:16:09;8.70;99.90
22795;DHT22;11564;50.920;11.612;2022-12-24T15:18:38;8.70;99.90
22795;DHT22;11564;50.920;11.612;2022-12-24T15:21:17;8.70;99.90
22795;DHT22;11564;50.920;11.612;2022-12-24T15:23:47;8.70;99.90
22795;DHT22;11564;50.920;11.612;2022-12-24T15:26:21;8.60;99.90
22795;DHT22;11564;50.920;11.612;2022-12-24T15:28:48;8.60;99.90
22795;DHT22;11564;50.920;11.612;2022-12-24T15:31:16;8.50;99.90
22795;DHT22;11564;50.920;11.612;2022-12-24T15:33:47;8.50;99.90
22795;DHT22;11564;50.920;11.612;2022-12-24T15:36:15;8.50;99.90
22795;DHT22;11564;50.920;11.612;2022-12-24T15:38:43;8.50;99.90
22795;DHT22;11564;50.920;11.612;2022-12-24T15:41:40;8.40;99.90
22795;DHT22;11564;50.920;11.612;2022-12-24T15:44:32;8.40;99.90
22795;DHT22;11564;50.920;11.612;2022-12-24T15:46:59;8.30;99.90
22795;DHT22;11564;50.920;11.612;2022-12-24T15:49:27;8.30;99.90
22795;DHT22;11564;50.920;11.612;2022-12-24T15:52:05;8.20;99.90
22795;DHT22;11564;50.920;11.612;2022-12-24T15:54:32;8.10;99.90
22795;DHT22;11564;50.920;11.612;2022-12-24T15:56:57;8.10;99.90
22795;DHT22;11564;50.920;11.612;2022-12-24T16:01:56;8.00;99.90
22795;DHT22;11564;50.920;11.612;2022-12-24T16:04:41;8.00;99.90
22795;DHT22;11564;50.920;11.612;2022-12-24T16:07:10;8.20;99.90
22795;DHT22;11564;50.920;11.612;2022-12-24T16:09:48;8.30;99.90
22795;DHT22;11564;50.920;11.612;2022-12-24T16:12:20;8.60;99.90
22795;DHT22;11564;50.920;11.612;2022-12-24T16:14:49;8.80;99.90
22795;DHT22;11564;50.920;11.612;2022-12-24T16:17:27;8.80;99.90
22795;DHT22;11564;50.920;11.612;2022-12-24T16:19:57;8.90;99.90
22795;DHT22;11564;50.920;11.612;2022-12-24T16:22:24;9.00;99.90
22795;DHT22;11564;50.920;11.612;2022-12-24T16:25:13;9.10;99.90
22795;DHT22;11564;50.920;11.612;2022-12-24T16:27:40;9.10;99.90
22795;DHT22;11564;50.920;11.612;2022-12-24T16:30:07;9.10;99.90
22795;DHT22;11564;50.920;11.612;2022-12-24T16:32:34;9.10;99.90
22795;DHT22;11564;50.920;11.612;2022-12-24T16:35:02;9.20;99.90
22795;DHT22;11564;50.920;11.612;2022-12-24T16:37:28;9.30;99.90
22795;DHT22;11564;50.920;11.612;2022-12-24T16:39:54;9.30;99.90
22795;DHT22;11564;50.920;11.612;2022-12-24T16:42:20;9.20;99.90
22795;DHT22;11564;50.920;11.612;2022-12-24T16:45:04;9.10;99.90
22795;DHT22;11564;50.920;11.612;2022-12-24T16:47:32;9.10;99.90
22795;DHT22;11564;50.920;11.612;2022-12-24T16:50:00;9.00;99.90
22795;DHT22;11564;50.920;11.612;2022-12-24T16:52:28;8.90;99.90
22795;DHT22;11564;50.920;11.612;2022-12-24T16:54:55;8.90;99.90
22795;DHT22;11564;50.920;11.612;2022-12-24T16:57:22;8.80;99.90
22795;DHT22;11564;50.920;11.612;2022-12-24T16:59:48;8.90;99.90
22795;DHT22;11564;50.920;11.612;2022-12-24T17:02:19;8.80;99.90
22795;DHT22;11564;50.920;11.612;2022-12-24T17:04:46;8.70;99.90
22795;DHT22;11564;50.920;11.612;2022-12-24T17:07:14;8.70;99.90
22795;DHT22;11564;50.920;11.612;2022-12-24T17:09:40;8.60;99.90
22795;DHT22;11564;50.920;11.612;2022-12-24T17:12:05;8.50;99.90
22795;DHT22;11564;50.920;11.612;2022-12-24T17:14:31;8.50;99.90
22795;DHT22;11564;50.920;11.612;2022-12-24T17:16:57;8.50;99.90
22795;DHT22;11564;50.920;11.612;2022-12-24T17:19:23;8.50;99.90
22795;DHT22;11564;50.920;11.612;2022-12-24T17:21:48;8.30;99.90
22795;DHT22;11564;50.920;11.612;2022-12-24T17:24:14;8.40;99.90
22795;DHT22;11564;50.920;11.612;2022-12-24T17:26:40;8.40;99.90
22795;DHT22;11564;50.920;11.612;2022-12-24T17:29:08;8.40;99.90
22795;DHT22;11564;50.920;11.612;2022-12-24T17:31:34;8.20;99.90
22795;DHT22;11564;50.920;11.612;2022-12-24T17:34:00;8.10;99.90
22795;DHT22;11564;50.920;11.612;2022-12-24T17:36:25;7.90;99.90
22795;DHT22;11564;50.920;11.612;2022-12-24T17:38:51;8.00;99.90
22795;DHT22;11564;50.920;11.612;2022-12-24T17:41:18;8.00;99.90
22795;DHT22;11564;50.920;11.612;2022-12-24T17:43:45;7.90;99.90
22795;DHT22;11564;50.920;11.612;2022-12-24T17:46:22;7.80;99.90
22795;DHT22;11564;50.920;11.612;2022-12-24T17:48:48;7.70;99.90
22795;DHT22;11564;50.920;11.612;2022-12-24T17:51:16;7.40;99.90
22795;DHT22;11564;50.920;11.612;2022-12-24T17:53:42;7.20;99.90